Heat Advisory
until 8:00 PM EDT
| Temperature (°F) | Max | Average | Min |
|---|---|---|---|
| Max Temperature | 95 | 87.53 | 76 |
| Avg Temperature | 83.79 | 76.97 | 66.46 |
| Min Temperature | 77 | 66.53 | 56 |
| Dew Point (°F) | Max | Average | Min |
|---|---|---|---|
| Dew Point | 75 | 64.8 | 37 |
| Precipitation (in) | Max | Average | Min | Sum |
|---|---|---|---|---|
| Precipitation | 1.83 | 0.15 | 0.00 | 4.52 |
| Snowdepth | 0.00 | 0.00 | 0.00 | 0.00 |
| Wind (mph) | Max | Average | Min |
|---|---|---|---|
| Wind | 26 | 5.24 | 0 |
| Gust Wind | 37 | 0.9 | 0 |
| Sea Level Pressure (in) | Max | Average | Min |
|---|---|---|---|
| Sea Level Pressure | 29.28 | 28.95 | 28.7 |
| Date | Temperature (°F) | Dew Point (°F) | Humidity (%) | Wind Speed (mph) | Pressure (in) | Precipitation (in) | ||||||||||
|---|---|---|---|---|---|---|---|---|---|---|---|---|---|---|---|---|
| Max | Avg | Min | Max | Avg | Min | Max | Avg | Min | Max | Avg | Min | Max | Avg | Min | ||
| 6/30/2024 | 92 | 81.5 | 73 | 75 | 72.9 | 71 | 93 | 75.7 | 57 | 18 | 6.7 | 0 | 29.1 | 29.0 | 29.0 | 0.02 |
| 6/29/2024 | 92 | 83.8 | 77 | 75 | 71.4 | 68 | 79 | 66.8 | 52 | 17 | 8.2 | 5 | 29.1 | 29.0 | 28.9 | 0.00 |
| 6/28/2024 | 93 | 82.0 | 71 | 72 | 69.5 | 67 | 91 | 67.5 | 50 | 15 | 5.2 | 0 | 28.9 | 28.9 | 28.9 | 0.00 |
| 6/27/2024 | 84 | 74.7 | 70 | 70 | 68.6 | 67 | 97 | 82.5 | 56 | 13 | 7.3 | 0 | 28.9 | 28.8 | 28.8 | 0.21 |
| 6/26/2024 | 95 | 82.2 | 67 | 68 | 64.3 | 61 | 87 | 57.4 | 33 | 14 | 5.1 | 0 | 28.9 | 28.8 | 28.7 | 0.00 |
| 6/25/2024 | 93 | 78.5 | 63 | 66 | 62.1 | 58 | 93 | 60.8 | 32 | 8 | 3.5 | 0 | 29.0 | 28.9 | 28.9 | 0.00 |
| 6/24/2024 | 90 | 78.7 | 71 | 73 | 66.9 | 58 | 100 | 71.1 | 36 | 10 | 5.3 | 0 | 28.9 | 28.9 | 28.8 | 0.88 |
| 6/23/2024 | 94 | 82.6 | 73 | 73 | 67.0 | 62 | 94 | 62.4 | 36 | 18 | 9.9 | 3 | 29.0 | 28.9 | 28.8 | 0.00 |
| 6/22/2024 | 93 | 82.8 | 71 | 69 | 66.8 | 64 | 87 | 60.4 | 39 | 10 | 3.2 | 0 | 29.1 | 29.0 | 28.9 | 0.00 |
| 6/21/2024 | 93 | 81.6 | 69 | 69 | 66.3 | 61 | 93 | 62.5 | 35 | 8 | 3.7 | 0 | 29.2 | 29.2 | 29.1 | 0.00 |
| 6/20/2024 | 91 | 79.2 | 66 | 68 | 65.1 | 61 | 93 | 65.1 | 38 | 12 | 4.3 | 0 | 29.3 | 29.2 | 29.2 | 0.00 |
| 6/19/2024 | 88 | 77.4 | 67 | 68 | 66.0 | 64 | 90 | 69.5 | 48 | 8 | 2.9 | 0 | 29.2 | 29.2 | 29.1 | 0.00 |
| 6/18/2024 | 91 | 80.7 | 72 | 72 | 69.3 | 64 | 93 | 70.2 | 46 | 8 | 3.3 | 0 | 29.1 | 29.1 | 29.1 | 0.06 |
| 6/17/2024 | 89 | 81.9 | 67 | 74 | 66.8 | 37 | 93 | 64.9 | 17 | 10 | 3.8 | 0 | 29.1 | 29.1 | 29.0 | 0.00 |
| 6/16/2024 | 92 | 79.0 | 69 | 73 | 68.0 | 63 | 85 | 69.6 | 54 | 7 | 4.0 | 0 | 29.1 | 29.0 | 29.0 | 0.00 |
| 6/15/2024 | 92 | 80.6 | 69 | 69 | 66.6 | 60 | 93 | 65.0 | 38 | 14 | 3.9 | 0 | 29.0 | 29.0 | 28.9 | 0.00 |
| 6/14/2024 | 90 | 79.9 | 68 | 68 | 66.5 | 64 | 87 | 65.4 | 45 | 10 | 4.4 | 0 | 29.0 | 28.9 | 28.9 | 0.00 |
| 6/13/2024 | 89 | 77.8 | 65 | 67 | 64.3 | 63 | 93 | 65.5 | 43 | 6 | 2.8 | 0 | 29.0 | 28.9 | 28.9 | 0.00 |
| 6/12/2024 | 85 | 72.1 | 58 | 64 | 58.7 | 54 | 87 | 64.4 | 43 | 7 | 4.0 | 0 | 29.0 | 29.0 | 28.9 | 0.00 |
| 6/11/2024 | 81 | 70.0 | 59 | 59 | 54.7 | 48 | 84 | 60.8 | 36 | 12 | 5.6 | 0 | 28.9 | 28.9 | 28.9 | 0.00 |
| 6/10/2024 | 82 | 70.8 | 59 | 63 | 56.1 | 48 | 96 | 63.8 | 34 | 10 | 4.9 | 0 | 28.9 | 28.8 | 28.8 | 0.75 |
| 6/9/2024 | 80 | 72.6 | 68 | 72 | 66.1 | 58 | 94 | 80.5 | 61 | 18 | 8.5 | 0 | 28.9 | 28.8 | 28.7 | 0.00 |
| 6/8/2024 | 85 | 72.4 | 57 | 60 | 55.5 | 49 | 90 | 58.1 | 31 | 8 | 3.3 | 0 | 29.0 | 28.9 | 28.9 | 0.00 |
| 6/7/2024 | 83 | 74.4 | 65 | 68 | 56.5 | 45 | 94 | 58.8 | 30 | 13 | 5.2 | 0 | 28.9 | 28.8 | 28.8 | 0.01 |
| 6/6/2024 | 83 | 75.8 | 69 | 70 | 66.5 | 63 | 85 | 73.1 | 60 | 20 | 10.9 | 5 | 28.8 | 28.8 | 28.7 | 0.00 |
| 6/5/2024 | 83 | 74.9 | 67 | 70 | 68.5 | 67 | 100 | 81.9 | 60 | 23 | 7.2 | 0 | 28.8 | 28.8 | 28.7 | 1.83 |
| 6/4/2024 | 86 | 73.4 | 65 | 72 | 68.6 | 64 | 97 | 85.7 | 57 | 26 | 6.2 | 0 | 28.9 | 28.8 | 28.8 | 0.08 |
| 6/3/2024 | 84 | 73.9 | 63 | 68 | 65.2 | 63 | 100 | 76.0 | 51 | 8 | 3.9 | 0 | 29.0 | 28.9 | 28.8 | 0.65 |
| 6/2/2024 | 77 | 67.6 | 62 | 67 | 63.2 | 60 | 97 | 86.1 | 64 | 12 | 5.3 | 0 | 29.0 | 29.0 | 28.9 | 0.03 |
| 6/1/2024 | 76 | 66.5 | 56 | 60 | 56.2 | 54 | 93 | 70.9 | 48 | 10 | 4.6 | 0 | 29.2 | 29.1 | 29.0 | 0.00 |